Port Colborne, Canada
Current Conditions -  °F | °C
As of 8:53 PM on Tuesday 21 Oct 2014 (Local Time) from KIAG Reporting Station
Light Rain Light Rain  
Wind Chill: 39°   Ceiling: 800
Heat Index: 45°   Visibility: 5mi
Dew Point: 43°   Wind: 14mph
Humidity: 93%   Direction: 20°NNE
Pressure: 30.06"   Gusts: 25mph
Location:  42.89°N, 79.25°W
Report Text: KIAG 220053Z 02012G22KT 5SM -RA BR OVC008 07/06 A3006 RMK AO2 SLP187 P0001 T00720061
Loading
Personal Weather Stations






























Interactive Weather Map New forecast layout! Learn more

10-Day Weather Forecast

Advertisements
Track Severe Weather on mobile